createdAt,value
2022-09-20T00:01:08.888Z,12.60
2022-09-20T00:03:41.625Z,8.97
2022-09-20T00:06:11.493Z,14.70
2022-09-20T00:08:39.443Z,9.17
2022-09-20T00:11:10.175Z,10.27
2022-09-20T00:13:39.240Z,12.53
2022-09-20T00:16:19.241Z,10.40
2022-09-20T00:18:51.907Z,9.73
2022-09-20T00:21:21.392Z,9.70
2022-09-20T00:23:48.915Z,14.33
2022-09-20T00:26:15.862Z,10.77
2022-09-20T00:28:43.574Z,9.13
2022-09-20T00:31:12.030Z,7.80
2022-09-20T00:33:58.311Z,11.60
2022-09-20T00:36:27.315Z,12.73
2022-09-20T00:39:02.102Z,9.97
2022-09-20T00:41:30.950Z,12.57
2022-09-20T00:43:58.889Z,12.47
2022-09-20T00:46:43.541Z,12.43
2022-09-20T00:49:22.420Z,11.70
2022-09-20T00:51:55.845Z,11.87
2022-09-20T00:54:25.494Z,11.47
2022-09-20T00:56:52.687Z,12.50
2022-09-20T00:59:30.323Z,13.73
2022-09-20T01:02:12.306Z,12.63
2022-09-20T01:04:42.613Z,11.83
2022-09-20T01:07:13.790Z,14.13
2022-09-20T01:09:40.714Z,9.20
2022-09-20T01:12:13.657Z,9.83
2022-09-20T01:14:44.113Z,10.50
2022-09-20T01:17:12.626Z,11.73
2022-09-20T01:20:05.647Z,10.97
2022-09-20T01:22:45.503Z,10.97
2022-09-20T01:25:26.194Z,10.70
2022-09-20T01:27:54.134Z,7.93
2022-09-20T01:30:23.191Z,12.93
2022-09-20T01:33:09.404Z,9.03
2022-09-20T01:35:37.690Z,8.47
2022-09-20T01:38:22.947Z,9.87
2022-09-20T01:40:52.973Z,8.40
2022-09-20T01:43:42.643Z,8.93
2022-09-20T01:46:33.432Z,9.37
2022-09-20T01:49:18.933Z,8.73
2022-09-20T01:52:07.535Z,10.40
2022-09-20T01:54:43.520Z,6.03
2022-09-20T01:57:32.065Z,9.83
2022-09-20T02:00:10.736Z,11.03
2022-09-20T02:02:59.239Z,10.13
2022-09-20T02:05:53.477Z,8.03
2022-09-20T02:08:39.155Z,5.60
2022-09-20T02:12:02.560Z,13.80
2022-09-20T02:14:57.281Z,9.03
2022-09-20T02:17:41.287Z,10.20
2022-09-20T02:20:23.345Z,6.17
2022-09-20T02:23:10.777Z,6.83
2022-09-20T02:26:05.112Z,5.03
2022-09-20T02:28:55.905Z,8.53
2022-09-20T02:31:56.495Z,6.87
2022-09-20T02:34:57.452Z,6.67
2022-09-20T02:37:39.460Z,5.00
2022-09-20T02:40:15.189Z,5.43
2022-09-20T02:43:07.496Z,7.43
2022-09-20T02:45:52.301Z,6.40
2022-09-20T02:48:27.335Z,5.50
2022-09-20T02:51:09.658Z,5.00
2022-09-20T02:53:58.644Z,13.40
2022-09-20T02:56:38.711Z,7.10
2022-09-20T02:59:20.382Z,5.20
2022-09-20T03:02:15.697Z,6.43
2022-09-20T03:05:10.658Z,6.30
2022-09-20T03:07:54.050Z,7.00
2022-09-20T03:10:47.623Z,4.37
2022-09-20T03:13:22.773Z,6.10
2022-09-20T03:15:55.706Z,4.20
2022-09-20T03:18:49.931Z,5.50
2022-09-20T03:21:50.990Z,5.93
2022-09-20T03:24:29.655Z,5.57
2022-09-20T03:27:17.348Z,5.40
2022-09-20T03:29:47.386Z,5.30
2022-09-20T03:32:52.684Z,7.43
2022-09-20T03:35:50.458Z,5.23
2022-09-20T03:38:41.314Z,5.40
2022-09-20T03:41:40.961Z,5.70
2022-09-20T03:44:10.916Z,6.77
2022-09-20T03:46:45.787Z,8.87
2022-09-20T03:49:34.586Z,6.40
2022-09-20T03:52:35.749Z,5.30
2022-09-20T03:55:30.343Z,5.53
2022-09-20T03:58:13.705Z,5.73
2022-09-20T04:01:09.432Z,8.03
2022-09-20T04:03:42.252Z,6.73
2022-09-20T04:06:37.776Z,11.37
2022-09-20T04:09:07.649Z,4.50
2022-09-20T04:11:46.174Z,12.77
2022-09-20T04:14:21.948Z,7.53
2022-09-20T04:16:52.323Z,10.33
2022-09-20T04:19:47.795Z,8.10
2022-09-20T04:22:14.987Z,9.63
2022-09-20T04:24:48.370Z,8.30
2022-09-20T04:27:39.170Z,12.87
2022-09-20T04:30:17.262Z,10.20
2022-09-20T04:32:49.483Z,13.40
2022-09-20T04:35:50.422Z,10.70
2022-09-20T04:38:20.057Z,13.53
2022-09-20T04:41:07.805Z,11.70
2022-09-20T04:43:53.779Z,9.83
2022-09-20T04:46:58.079Z,11.00
2022-09-20T04:49:43.738Z,10.70
2022-09-20T04:52:29.725Z,12.70
2022-09-20T04:55:21.339Z,10.27
2022-09-20T04:58:06.627Z,9.37
2022-09-20T05:00:55.898Z,9.80
2022-09-20T05:03:58.825Z,10.27
2022-09-20T05:06:50.805Z,10.77
2022-09-20T05:09:44.065Z,10.50
2022-09-20T05:12:53.408Z,9.43
2022-09-20T05:15:36.286Z,13.27
2022-09-20T05:18:23.607Z,8.47
2022-09-20T05:21:08.722Z,9.77
2022-09-20T05:24:00.074Z,13.40
2022-09-20T05:26:44.227Z,11.23
2022-09-20T05:29:49.449Z,12.67
2022-09-20T05:32:26.155Z,8.93
2022-09-20T05:35:00.707Z,12.33
2022-09-20T05:37:46.250Z,17.33
2022-09-20T05:40:29.133Z,15.60
2022-09-20T05:43:13.041Z,17.73
2022-09-20T05:46:12.016Z,19.63
2022-09-20T05:49:05.551Z,29.57
2022-09-20T05:52:00.266Z,30.63
2022-09-20T05:54:50.420Z,36.77
2022-09-20T05:57:32.833Z,37.00
2022-09-20T06:00:18.186Z,34.27
2022-09-20T06:03:03.149Z,33.33
2022-09-20T06:06:07.369Z,39.10
2022-09-20T06:08:59.071Z,37.47
2022-09-20T06:11:50.910Z,38.80
2022-09-20T06:14:30.648Z,34.13
2022-09-20T06:17:13.500Z,30.67
2022-09-20T06:20:10.386Z,26.10
2022-09-20T06:22:49.774Z,24.80
2022-09-20T06:25:20.593Z,24.20
2022-09-20T06:28:20.134Z,25.07
2022-09-20T06:30:49.984Z,25.93
2022-09-20T06:33:19.156Z,17.53
2022-09-20T06:36:21.447Z,16.53
2022-09-20T06:39:13.113Z,13.67
2022-09-20T06:41:41.971Z,8.10
2022-09-20T06:44:11.616Z,9.07
2022-09-20T06:46:39.315Z,8.03
2022-09-20T06:49:09.638Z,7.10
2022-09-20T06:51:39.231Z,8.77
2022-09-20T06:54:11.418Z,8.37
2022-09-20T06:56:38.909Z,10.95
2022-09-20T06:59:11.437Z,6.10
2022-09-20T07:01:39.095Z,5.20
2022-09-20T07:04:07.116Z,6.07
2022-09-20T07:06:34.245Z,4.63
2022-09-20T07:09:01.456Z,7.30
2022-09-20T07:11:28.508Z,6.40
2022-09-20T07:13:58.209Z,6.85
2022-09-20T07:16:26.412Z,4.45
2022-09-20T07:18:53.562Z,4.80
2022-09-20T07:21:21.261Z,4.15
2022-09-20T07:23:51.453Z,4.72
2022-09-20T07:26:21.459Z,4.50
2022-09-20T07:28:49.534Z,3.65
2022-09-20T07:31:18.305Z,6.43
2022-09-20T07:33:45.635Z,3.58
2022-09-20T07:36:12.787Z,4.35
2022-09-20T07:38:40.957Z,5.63
2022-09-20T07:41:09.064Z,4.97
2022-09-20T07:43:36.701Z,9.30
2022-09-20T07:46:03.815Z,7.53
2022-09-20T07:48:33.490Z,4.35
2022-09-20T07:51:09.198Z,8.85
2022-09-20T07:53:37.757Z,5.72
2022-09-20T07:56:12.329Z,9.52
2022-09-20T07:58:40.166Z,8.07
2022-09-20T08:01:10.175Z,8.30
2022-09-20T08:03:37.878Z,6.45
2022-09-20T08:06:07.702Z,5.57
2022-09-20T08:08:37.101Z,5.70
2022-09-20T08:11:06.451Z,1.98
2022-09-20T08:16:29.191Z,3.28
2022-09-20T08:19:01.301Z,3.80
2022-09-20T08:21:32.086Z,1.80
2022-09-20T08:24:00.065Z,3.17
2022-09-20T08:26:31.166Z,3.33
2022-09-20T08:28:59.811Z,5.72
2022-09-20T08:31:31.533Z,1.92
2022-09-20T08:33:59.220Z,3.28
2022-09-20T08:36:27.561Z,3.53
2022-09-20T08:42:20.037Z,2.85
2022-09-20T08:45:01.167Z,6.82
2022-09-20T08:47:33.213Z,2.83
2022-09-20T08:50:09.250Z,4.43
2022-09-20T08:52:40.184Z,2.25
2022-09-20T08:55:17.005Z,5.60
2022-09-20T08:57:49.325Z,3.63
2022-09-20T09:00:23.319Z,4.93
2022-09-20T09:02:54.072Z,2.35
2022-09-20T09:05:33.253Z,1.98
2022-09-20T09:08:05.016Z,2.97
2022-09-20T09:10:45.136Z,2.63
2022-09-20T09:13:37.399Z,3.75
2022-09-20T09:16:14.783Z,2.00
2022-09-20T09:18:46.163Z,1.02
2022-09-20T09:21:18.119Z,2.17
2022-09-20T09:23:51.257Z,2.15
2022-09-20T09:26:24.450Z,1.95
2022-09-20T09:29:18.846Z,1.15
2022-09-20T09:31:48.218Z,2.85
2022-09-20T09:34:33.981Z,1.35
2022-09-20T09:37:01.120Z,2.92
2022-09-20T09:39:29.237Z,1.40
2022-09-20T09:42:01.143Z,1.58
2022-09-20T09:44:33.817Z,2.65
2022-09-20T09:47:01.967Z,0.50
2022-09-20T09:49:35.988Z,1.20
2022-09-20T09:52:12.939Z,0.93
2022-09-20T09:55:05.863Z,1.88
2022-09-20T09:57:41.856Z,0.52
2022-09-20T10:00:23.366Z,1.27
2022-09-20T10:03:11.904Z,1.88
2022-09-20T10:05:48.055Z,2.58
2022-09-20T10:08:21.303Z,0.60
2022-09-20T10:11:00.843Z,2.80
2022-09-20T10:13:40.814Z,1.00
2022-09-20T10:16:17.632Z,2.60
2022-09-20T10:19:12.272Z,4.07
2022-09-20T10:21:58.063Z,2.97
2022-09-20T10:24:32.843Z,3.13
2022-09-20T10:27:11.975Z,2.07
2022-09-20T10:30:01.646Z,4.13
2022-09-20T10:32:51.886Z,0.90
2022-09-20T10:35:49.816Z,1.17
2022-09-20T10:38:24.574Z,0.80
2022-09-20T10:41:26.044Z,1.10
2022-09-20T10:44:09.968Z,0.32
2022-09-20T10:47:06.831Z,0.57
2022-09-20T10:49:41.888Z,0.73
2022-09-20T10:52:24.253Z,1.65
2022-09-20T10:55:06.557Z,0.75
2022-09-20T10:57:55.632Z,1.88
2022-09-20T11:00:31.316Z,1.58
2022-09-20T11:03:19.517Z,0.45
2022-09-20T11:06:21.327Z,0.60
2022-09-20T11:08:55.787Z,0.10
2022-09-20T11:11:29.511Z,2.20
2022-09-20T11:14:14.756Z,0.45
2022-09-20T11:16:56.711Z,1.00
2022-09-20T11:19:31.521Z,0.17
2022-09-20T11:22:10.946Z,0.85
2022-09-20T11:24:48.058Z,1.50
2022-09-20T11:27:24.447Z,0.60
2022-09-20T11:30:04.043Z,0.80
2022-09-20T11:32:50.021Z,1.08
2022-09-20T11:35:29.846Z,1.63
2022-09-20T11:38:14.770Z,0.32
2022-09-20T11:40:49.355Z,0.75
2022-09-20T11:43:18.447Z,0.75
2022-09-20T11:45:50.178Z,1.30
2022-09-20T11:48:25.408Z,0.95
2022-09-20T11:51:33.024Z,0.70
2022-09-20T11:54:23.826Z,0.50
2022-09-20T11:56:56.703Z,6.72
2022-09-20T11:59:38.284Z,0.57
2022-09-20T12:02:18.121Z,3.33
2022-09-20T12:04:49.555Z,0.70
2022-09-20T12:07:20.349Z,2.10
2022-09-20T12:09:55.541Z,0.45
2022-09-20T12:12:39.017Z,0.60
2022-09-20T12:15:21.973Z,1.38
2022-09-20T12:17:49.654Z,5.75
2022-09-20T12:20:35.065Z,5.72
2022-09-20T12:23:39.664Z,2.50
2022-09-20T12:26:11.101Z,0.90
2022-09-20T12:28:43.855Z,0.35
2022-09-20T12:31:26.004Z,1.48
2022-09-20T12:34:02.702Z,1.20
2022-09-20T12:36:36.166Z,0.40
2022-09-20T12:39:20.684Z,0.60
2022-09-20T12:42:00.294Z,2.38
2022-09-20T12:44:48.636Z,4.10
2022-09-20T12:47:20.554Z,0.43
2022-09-20T12:50:05.877Z,1.85
2022-09-20T12:52:58.187Z,1.98
2022-09-20T12:55:46.113Z,1.52
2022-09-20T12:58:14.288Z,3.10
2022-09-20T13:01:05.001Z,2.50
2022-09-20T13:03:36.808Z,1.08
2022-09-20T13:06:11.276Z,0.40
2022-09-20T13:09:01.017Z,0.35
2022-09-20T13:11:54.725Z,2.03
2022-09-20T13:14:31.453Z,1.85
2022-09-20T13:17:01.315Z,0.60
2022-09-20T13:19:34.331Z,0.77
2022-09-20T13:22:03.265Z,3.13
2022-09-20T13:24:37.448Z,1.58
2022-09-20T13:27:11.973Z,1.50
2022-09-20T13:29:42.073Z,0.98
2022-09-20T13:32:26.269Z,2.58
2022-09-20T13:35:06.728Z,1.42
2022-09-20T13:37:34.618Z,3.25
2022-09-20T13:40:02.737Z,0.50
2022-09-20T13:42:30.676Z,1.05
2022-09-20T13:44:58.807Z,1.00
2022-09-20T13:47:28.356Z,0.50
2022-09-20T13:50:08.159Z,1.05
2022-09-20T13:52:46.244Z,1.52
2022-09-20T13:55:37.678Z,2.25
2022-09-20T13:58:08.665Z,2.55
2022-09-20T14:00:37.896Z,3.40
2022-09-20T14:03:05.059Z,1.17
2022-09-20T14:05:32.176Z,2.00
2022-09-20T14:08:00.699Z,0.75
2022-09-20T14:10:37.952Z,1.10
2022-09-20T14:13:13.915Z,2.47
2022-09-20T14:15:46.761Z,0.60
2022-09-20T14:18:18.008Z,1.95
2022-09-20T14:20:45.731Z,2.90
2022-09-20T14:23:24.125Z,1.20
2022-09-20T14:26:06.668Z,0.68
2022-09-20T14:28:33.530Z,0.55
2022-09-20T14:31:08.819Z,1.25
2022-09-20T14:33:42.513Z,3.85
2022-09-20T14:36:15.712Z,1.42
2022-09-20T14:38:48.506Z,1.08
2022-09-20T14:41:28.527Z,0.88
2022-09-20T14:43:58.548Z,0.40
2022-09-20T14:46:35.392Z,0.80
2022-09-20T14:49:33.089Z,2.63
2022-09-20T14:52:27.934Z,0.70
2022-09-20T14:55:13.899Z,1.25
2022-09-20T14:57:42.501Z,1.27
2022-09-20T15:00:15.133Z,1.05
2022-09-20T15:02:44.373Z,1.40
2022-09-20T15:05:28.121Z,1.47
2022-09-20T15:07:57.563Z,2.00
2022-09-20T15:10:24.716Z,1.02
2022-09-20T15:12:51.578Z,0.90
2022-09-20T15:15:18.997Z,1.27
2022-09-20T15:17:47.175Z,0.73
2022-09-20T15:20:24.697Z,0.60
2022-09-20T15:22:52.105Z,0.82
2022-09-20T15:25:21.260Z,0.38
2022-09-20T15:27:52.288Z,1.02
2022-09-20T15:30:20.260Z,1.63
2022-09-20T15:32:47.473Z,1.73
2022-09-20T15:35:14.761Z,1.17
2022-09-20T15:37:41.734Z,4.43
2022-09-20T15:40:09.538Z,1.07
2022-09-20T15:42:41.539Z,1.67
2022-09-20T15:45:10.658Z,1.85
2022-09-20T15:47:38.736Z,1.92
2022-09-20T15:50:08.513Z,1.00
2022-09-20T15:52:37.016Z,0.50
2022-09-20T15:55:04.259Z,0.50
2022-09-20T15:57:31.969Z,3.60
2022-09-20T15:59:59.477Z,1.23
2022-09-20T16:02:27.371Z,1.05
2022-09-20T16:04:55.835Z,1.17
2022-09-20T16:07:26.279Z,1.20
2022-09-20T16:09:56.877Z,1.60
2022-09-20T16:12:25.770Z,1.00
2022-09-20T16:14:52.639Z,1.10
2022-09-20T16:17:39.582Z,0.33
2022-09-20T16:20:07.325Z,2.10
2022-09-20T16:22:34.261Z,1.27
2022-09-20T16:25:06.025Z,1.00
2022-09-20T16:27:34.863Z,1.80
2022-09-20T16:30:02.539Z,1.23
2022-09-20T16:32:30.233Z,6.47
2022-09-20T16:34:58.527Z,3.63
2022-09-20T16:37:26.553Z,0.73
2022-09-20T16:39:53.364Z,6.33
2022-09-20T16:42:21.006Z,1.70
2022-09-20T16:44:47.856Z,2.23
2022-09-20T16:47:22.313Z,2.37
2022-09-20T16:49:50.552Z,6.57
2022-09-20T16:52:17.716Z,6.53
2022-09-20T16:54:44.719Z,5.40
2022-09-20T16:57:13.343Z,6.40
2022-09-20T16:59:40.812Z,10.97
2022-09-20T17:02:11.215Z,7.80
2022-09-20T17:04:38.649Z,7.97
2022-09-20T17:07:06.072Z,6.80
2022-09-20T17:09:32.971Z,17.67
2022-09-20T17:12:00.215Z,18.37
2022-09-20T17:14:27.721Z,17.47
2022-09-20T17:16:56.468Z,18.70
2022-09-20T17:19:23.537Z,25.93
2022-09-20T17:21:51.066Z,20.97
2022-09-20T17:24:20.143Z,26.07
2022-09-20T17:26:48.647Z,17.27
2022-09-20T17:29:17.515Z,14.17
2022-09-20T17:31:51.496Z,16.70
2022-09-20T17:34:21.786Z,18.50
2022-09-20T17:36:50.460Z,16.23
2022-09-20T17:39:18.489Z,15.13
2022-09-20T17:41:48.051Z,16.43
2022-09-20T17:44:15.997Z,15.20
2022-09-20T17:46:45.260Z,13.67
2022-09-20T17:49:15.099Z,12.40
2022-09-20T17:51:46.249Z,14.00
2022-09-20T17:54:14.316Z,10.60
2022-09-20T17:56:44.956Z,8.87
2022-09-20T17:59:13.956Z,9.07
2022-09-20T18:01:41.814Z,10.33
2022-09-20T18:04:10.099Z,8.20
2022-09-20T18:06:36.880Z,7.63
2022-09-20T18:09:09.327Z,7.77
2022-09-20T18:11:41.599Z,9.40
2022-09-20T18:14:13.489Z,7.43
2022-09-20T18:16:40.710Z,7.60
2022-09-20T18:19:08.944Z,8.40
2022-09-20T18:21:37.399Z,11.43
2022-09-20T18:24:09.188Z,11.67
2022-09-20T18:26:37.667Z,14.83
2022-09-20T18:29:08.023Z,11.83
2022-09-20T18:31:43.061Z,16.10
2022-09-20T18:34:21.529Z,17.23
2022-09-20T18:36:55.506Z,17.10
2022-09-20T18:39:24.937Z,17.77
2022-09-20T18:41:53.025Z,19.43
2022-09-20T18:44:21.392Z,20.33
2022-09-20T18:46:50.741Z,17.47
2022-09-20T18:49:17.732Z,19.60
2022-09-20T18:51:46.309Z,19.60
2022-09-20T18:54:13.391Z,24.77
2022-09-20T18:56:50.773Z,19.53
2022-09-20T18:59:26.709Z,18.00
2022-09-20T19:02:23.789Z,21.23
2022-09-20T19:05:09.929Z,21.73
2022-09-20T19:08:06.617Z,19.17
2022-09-20T19:10:55.711Z,18.83
2022-09-20T19:14:14.029Z,16.97
2022-09-20T19:16:41.871Z,19.10
2022-09-20T19:19:20.619Z,15.93
2022-09-20T19:22:29.302Z,16.80
2022-09-20T19:25:08.034Z,22.47
2022-09-20T19:27:35.484Z,18.60
2022-09-20T19:30:03.198Z,22.27
2022-09-20T19:32:30.334Z,15.53
2022-09-20T19:35:01.622Z,17.50
2022-09-20T19:37:55.535Z,17.63
2022-09-20T19:40:40.443Z,11.93
2022-09-20T19:43:18.927Z,14.20
2022-09-20T19:46:07.190Z,14.27
2022-09-20T19:48:47.091Z,14.77
2022-09-20T19:51:15.167Z,12.93
2022-09-20T19:53:42.365Z,14.53
2022-09-20T19:56:25.466Z,13.87
2022-09-20T19:58:54.980Z,14.97
2022-09-20T20:01:23.978Z,14.53
2022-09-20T20:03:52.366Z,14.20
2022-09-20T20:06:22.993Z,16.87
2022-09-20T20:08:57.409Z,16.53
2022-09-20T20:11:46.306Z,16.43
2022-09-20T20:15:01.445Z,14.57
2022-09-20T20:17:48.441Z,13.77
2022-09-20T20:20:37.194Z,15.77
2022-09-20T20:23:29.096Z,15.27
2022-09-20T20:26:10.057Z,16.80
2022-09-20T20:28:37.502Z,18.00
2022-09-20T20:31:06.186Z,24.00
2022-09-20T20:33:33.553Z,17.37
2022-09-20T20:36:02.237Z,18.47
2022-09-20T20:38:30.127Z,18.77
2022-09-20T20:41:05.437Z,16.53
2022-09-20T20:43:35.062Z,16.57
2022-09-20T20:46:04.076Z,17.10
2022-09-20T20:48:31.328Z,16.90
2022-09-20T20:51:03.421Z,16.57
2022-09-20T20:53:32.282Z,17.13
2022-09-20T20:56:07.925Z,16.10
2022-09-20T20:58:37.956Z,15.47
2022-09-20T21:01:14.147Z,17.73
2022-09-20T21:03:43.028Z,16.87
2022-09-20T21:06:10.897Z,15.93
2022-09-20T21:08:40.008Z,12.40
2022-09-20T21:11:12.158Z,14.87
2022-09-20T21:13:40.207Z,12.80
2022-09-20T21:16:11.142Z,14.20
2022-09-20T21:18:39.932Z,13.90
2022-09-20T21:21:14.294Z,16.90
2022-09-20T21:23:41.186Z,12.67
2022-09-20T21:26:10.854Z,13.60
2022-09-20T21:28:41.305Z,15.40
2022-09-20T21:31:09.803Z,16.90
2022-09-20T21:33:39.079Z,14.20
2022-09-20T21:36:09.046Z,18.50
2022-09-20T21:38:36.799Z,24.57
2022-09-20T21:41:22.094Z,22.70
2022-09-20T21:43:53.141Z,18.23
2022-09-20T21:46:22.303Z,21.30
2022-09-20T21:48:50.526Z,16.70
2022-09-20T21:51:20.347Z,14.47
2022-09-20T21:53:56.501Z,15.30
2022-09-20T21:56:25.051Z,14.00
2022-09-20T21:58:52.045Z,15.13
2022-09-20T22:01:24.298Z,14.27
2022-09-20T22:03:58.991Z,13.43
2022-09-20T22:06:33.506Z,12.47
2022-09-20T22:09:02.675Z,16.50
2022-09-20T22:11:50.195Z,14.93
2022-09-20T22:14:19.559Z,15.27
2022-09-20T22:16:48.800Z,12.33
2022-09-20T22:19:17.607Z,12.33
2022-09-20T22:21:49.755Z,9.83
2022-09-20T22:24:18.200Z,10.97
2022-09-20T22:26:47.456Z,17.77
2022-09-20T22:29:15.510Z,9.07
2022-09-20T22:31:45.638Z,13.53
2022-09-20T22:34:18.427Z,12.47
2022-09-20T22:36:46.325Z,12.37
2022-09-20T22:39:13.949Z,8.47
2022-09-20T22:41:42.522Z,9.43
2022-09-20T22:44:10.036Z,13.37
2022-09-20T22:46:38.084Z,11.23
2022-09-20T22:49:06.041Z,10.77
2022-09-20T22:51:34.430Z,7.67
2022-09-20T22:54:05.851Z,9.77
2022-09-20T22:56:37.250Z,9.83
2022-09-20T22:59:09.981Z,9.07
2022-09-20T23:01:41.165Z,9.73
2022-09-20T23:04:11.904Z,14.67
2022-09-20T23:06:39.974Z,10.70
2022-09-20T23:09:09.459Z,11.67
2022-09-20T23:11:38.282Z,9.33
2022-09-20T23:14:06.268Z,10.90
2022-09-20T23:16:35.718Z,9.37
2022-09-20T23:19:05.881Z,10.43
2022-09-20T23:21:34.082Z,8.20
2022-09-20T23:24:02.778Z,7.27
2022-09-20T23:26:32.357Z,12.07
2022-09-20T23:29:11.989Z,8.70
2022-09-20T23:31:41.016Z,8.23
2022-09-20T23:34:08.802Z,10.43
2022-09-20T23:36:38.346Z,10.03
2022-09-20T23:39:07.325Z,10.13
2022-09-20T23:41:36.601Z,8.83
2022-09-20T23:44:06.439Z,11.60
2022-09-20T23:46:34.418Z,8.57
2022-09-20T23:49:01.884Z,10.70
2022-09-20T23:51:29.457Z,11.27
2022-09-20T23:53:56.552Z,9.73
2022-09-20T23:56:24.208Z,6.73
2022-09-20T23:58:51.258Z,5.53
